createdAt,value
2019-02-25T00:00:38.245Z,1010.62
2019-02-25T00:01:38.212Z,1010.58
2019-02-25T00:02:38.089Z,1010.57
2019-02-25T00:03:37.996Z,1010.56
2019-02-25T00:04:37.911Z,1010.55
2019-02-25T00:05:37.827Z,1010.51
2019-02-25T00:06:37.745Z,1010.49
2019-02-25T00:07:37.662Z,1010.47
2019-02-25T00:08:37.576Z,1010.48
2019-02-25T00:09:37.492Z,1010.51
2019-02-25T00:10:37.409Z,1010.49
2019-02-25T00:11:37.326Z,1010.50
2019-02-25T00:12:37.247Z,1010.49
2019-02-25T00:13:37.158Z,1010.50
2019-02-25T00:14:37.076Z,1010.52
2019-02-25T00:15:36.991Z,1010.54
2019-02-25T00:16:36.909Z,1010.56
2019-02-25T00:17:36.824Z,1010.61
2019-02-25T00:18:36.781Z,1010.59
2019-02-25T00:19:36.656Z,1010.63
2019-02-25T00:20:36.570Z,1010.65
2019-02-25T00:21:36.487Z,1010.70
2019-02-25T00:22:36.403Z,1010.73
2019-02-25T00:23:36.319Z,1010.75
2019-02-25T00:24:36.237Z,1010.77
2019-02-25T00:25:36.152Z,1010.75
2019-02-25T00:26:36.071Z,1010.78
2019-02-25T00:27:35.993Z,1010.79
2019-02-25T00:28:35.900Z,1010.79
2019-02-25T00:29:35.818Z,1010.78
2019-02-25T00:30:35.733Z,1010.80
2019-02-25T00:31:35.649Z,1010.83
2019-02-25T00:32:35.564Z,1010.83
2019-02-25T00:33:35.481Z,1010.85
2019-02-25T00:34:35.398Z,1010.88
2019-02-25T00:35:35.313Z,1010.91
2019-02-25T00:36:35.229Z,1010.88
2019-02-25T00:37:35.146Z,1010.85
2019-02-25T00:38:35.062Z,1010.88
2019-02-25T00:39:35.030Z,1010.90
2019-02-25T00:40:34.893Z,1010.92
2019-02-25T00:41:34.810Z,1010.89
2019-02-25T00:42:34.726Z,1010.90
2019-02-25T00:43:34.642Z,1010.89
2019-02-25T00:44:34.556Z,1010.90
2019-02-25T00:45:34.474Z,1010.96
2019-02-25T00:46:34.390Z,1010.96
2019-02-25T00:47:34.305Z,1011.00
2019-02-25T00:48:34.221Z,1011.01
2019-02-25T00:49:34.136Z,1011.02
2019-02-25T00:50:34.053Z,1010.96
2019-02-25T00:51:33.971Z,1011.01
2019-02-25T00:52:33.884Z,1010.97
2019-02-25T00:53:33.800Z,1010.91
2019-02-25T00:54:33.715Z,1010.91
2019-02-25T00:55:33.632Z,1010.93
2019-02-25T00:56:33.647Z,1010.90
2019-02-25T00:57:33.464Z,1010.93
2019-02-25T00:58:33.380Z,1010.93
2019-02-25T00:59:33.297Z,1010.95
2019-02-25T01:00:33.212Z,1010.97
2019-02-25T01:01:33.127Z,1010.96
2019-02-25T01:02:33.043Z,1010.98
2019-02-25T01:03:32.959Z,1010.97
2019-02-25T01:04:32.874Z,1010.94
2019-02-25T01:05:32.790Z,1010.96
2019-02-25T01:06:32.707Z,1010.96
2019-02-25T01:07:32.622Z,1010.95
2019-02-25T01:08:32.539Z,1010.94
2019-02-25T01:09:32.453Z,1010.94
2019-02-25T01:10:32.371Z,1010.94
2019-02-25T01:11:32.290Z,1010.94
2019-02-25T01:12:32.202Z,1010.95
2019-02-25T01:13:32.118Z,1010.94
2019-02-25T01:14:32.039Z,1010.93
2019-02-25T01:15:31.952Z,1010.95
2019-02-25T01:16:31.867Z,1010.91
2019-02-25T01:17:31.783Z,1010.86
2019-02-25T01:18:31.700Z,1010.87
2019-02-25T01:19:31.615Z,1010.85
2019-02-25T01:20:31.531Z,1010.86
2019-02-25T01:21:31.447Z,1010.88
2019-02-25T01:22:31.364Z,1010.85
2019-02-25T01:23:31.289Z,1010.84
2019-02-25T01:24:31.195Z,1010.83
2019-02-25T01:25:31.111Z,1010.80
2019-02-25T01:26:31.031Z,1010.78
2019-02-25T01:27:30.942Z,1010.71
2019-02-25T01:28:30.860Z,1010.71
2019-02-25T01:29:30.774Z,1010.69
2019-02-25T01:30:30.691Z,1010.71
2019-02-25T01:31:30.607Z,1010.70
2019-02-25T01:32:30.523Z,1010.68
2019-02-25T01:33:30.439Z,1010.66
2019-02-25T01:34:30.356Z,1010.64
2019-02-25T01:35:30.272Z,1010.60
2019-02-25T01:36:30.186Z,1010.66
2019-02-25T01:37:30.103Z,1010.69
2019-02-25T01:38:30.019Z,1010.67
2019-02-25T01:39:29.935Z,1010.70
2019-02-25T01:40:29.850Z,1010.67
2019-02-25T01:41:29.767Z,1010.71
2019-02-25T01:42:29.684Z,1010.70
2019-02-25T01:43:29.600Z,1010.68
2019-02-25T01:44:29.515Z,1010.69
2019-02-25T01:45:29.430Z,1010.68
2019-02-25T01:46:29.347Z,1010.65
2019-02-25T01:47:29.263Z,1010.63
2019-02-25T01:48:29.528Z,1010.68
2019-02-25T01:49:29.094Z,1010.69
2019-02-25T01:50:29.011Z,1010.72
2019-02-25T01:51:28.928Z,1010.73
2019-02-25T01:52:28.843Z,1010.70
2019-02-25T01:53:28.762Z,1010.70
2019-02-25T01:54:28.675Z,1010.65
2019-02-25T01:55:28.590Z,1010.61
2019-02-25T01:56:28.505Z,1010.58
2019-02-25T01:57:28.422Z,1010.59
2019-02-25T01:58:28.338Z,1010.60
2019-02-25T01:59:28.254Z,1010.58
2019-02-25T02:00:28.168Z,1010.55
2019-02-25T02:01:28.086Z,1010.57
2019-02-25T02:02:28.000Z,1010.55
2019-02-25T02:03:27.917Z,1010.54
2019-02-25T02:04:27.831Z,1010.58
2019-02-25T02:05:27.750Z,1010.59
2019-02-25T02:06:27.663Z,1010.58
2019-02-25T02:07:27.580Z,1010.59
2019-02-25T02:08:27.497Z,1010.57
2019-02-25T02:09:27.411Z,1010.56
2019-02-25T02:10:27.327Z,1010.56
2019-02-25T02:11:27.242Z,1010.54
2019-02-25T02:12:27.157Z,1010.52
2019-02-25T02:13:27.073Z,1010.56
2019-02-25T02:14:26.989Z,1010.52
2019-02-25T02:15:26.912Z,1010.52
2019-02-25T02:16:26.820Z,1010.51
2019-02-25T02:17:26.736Z,1010.48
2019-02-25T02:18:26.651Z,1010.52
2019-02-25T02:19:26.569Z,1010.48
2019-02-25T02:20:26.481Z,1010.47
2019-02-25T02:21:26.397Z,1010.49
2019-02-25T02:22:26.317Z,1010.50
2019-02-25T02:23:26.230Z,1010.51
2019-02-25T02:24:26.145Z,1010.50
2019-02-25T02:25:26.060Z,1010.50
2019-02-25T02:26:25.976Z,1010.51
2019-02-25T02:27:25.896Z,1010.50
2019-02-25T02:28:25.807Z,1010.50
2019-02-25T02:29:25.723Z,1010.52
2019-02-25T02:30:25.644Z,1010.50
2019-02-25T02:31:25.554Z,1010.50
2019-02-25T02:32:25.469Z,1010.47
2019-02-25T02:33:25.388Z,1010.45
2019-02-25T02:34:25.300Z,1010.41
2019-02-25T02:35:25.216Z,1010.44
2019-02-25T02:36:25.133Z,1010.41
2019-02-25T02:37:25.046Z,1010.42
2019-02-25T02:38:24.961Z,1010.44
2019-02-25T02:39:24.884Z,1010.43
2019-02-25T02:40:24.794Z,1010.46
2019-02-25T02:41:24.709Z,1010.44
2019-02-25T02:42:24.622Z,1010.42
2019-02-25T02:43:24.541Z,1010.45
2019-02-25T02:44:24.456Z,1010.46
2019-02-25T02:45:24.371Z,1010.47
2019-02-25T02:46:24.286Z,1010.47
2019-02-25T02:47:24.251Z,1010.41
2019-02-25T02:48:24.115Z,1010.41
2019-02-25T02:49:24.031Z,1010.48
2019-02-25T02:50:23.948Z,1010.47
2019-02-25T02:51:23.868Z,1010.46
2019-02-25T02:52:23.778Z,1010.48
2019-02-25T02:53:23.696Z,1010.51
2019-02-25T02:54:23.611Z,1010.50
2019-02-25T02:55:23.527Z,1010.57
2019-02-25T02:56:23.441Z,1010.57
2019-02-25T02:57:23.355Z,1010.56
2019-02-25T02:58:23.275Z,1010.53
2019-02-25T02:59:23.188Z,1010.52
2019-02-25T03:00:23.112Z,1010.48
2019-02-25T03:01:23.098Z,1010.48
2019-02-25T03:02:22.935Z,1010.51
2019-02-25T03:03:22.850Z,1010.51
2019-02-25T03:04:22.764Z,1010.53
2019-02-25T03:05:22.680Z,1010.51
2019-02-25T03:06:22.595Z,1010.55
2019-02-25T03:07:22.511Z,1010.54
2019-02-25T03:08:22.428Z,1010.55
2019-02-25T03:09:22.342Z,1010.57
2019-02-25T03:10:22.260Z,1010.54
2019-02-25T03:11:22.177Z,1010.60
2019-02-25T03:12:22.088Z,1010.56
2019-02-25T03:13:22.004Z,1010.56
2019-02-25T03:14:21.919Z,1010.53
2019-02-25T03:15:21.840Z,1010.50
2019-02-25T03:16:21.749Z,1010.52
2019-02-25T03:17:21.668Z,1010.51
2019-02-25T03:18:21.581Z,1010.54
2019-02-25T03:19:21.501Z,1010.50
2019-02-25T03:20:21.412Z,1010.49
2019-02-25T03:21:21.327Z,1010.53
2019-02-25T03:22:21.242Z,1010.58
2019-02-25T03:23:21.208Z,1010.61
2019-02-25T03:24:21.074Z,1010.59
2019-02-25T03:25:20.994Z,1010.56
2019-02-25T03:26:20.908Z,1010.58
2019-02-25T03:27:20.819Z,1010.62
2019-02-25T03:28:20.859Z,1010.59
2019-02-25T03:29:20.649Z,1010.56
2019-02-25T03:30:20.710Z,1010.51
2019-02-25T03:31:20.498Z,1010.51
2019-02-25T03:32:20.397Z,1010.50
2019-02-25T03:33:20.313Z,1010.47
2019-02-25T03:34:20.228Z,1010.48
2019-02-25T03:35:20.144Z,1010.44
2019-02-25T03:36:20.058Z,1010.39
2019-02-25T03:37:19.973Z,1010.42
2019-02-25T03:38:19.893Z,1010.40
2019-02-25T03:39:19.807Z,1010.42
2019-02-25T03:40:19.720Z,1010.42
2019-02-25T03:41:19.635Z,1010.44
2019-02-25T03:42:19.551Z,1010.44
2019-02-25T03:43:19.466Z,1010.47
2019-02-25T03:44:19.387Z,1010.49
2019-02-25T03:45:19.297Z,1010.49
2019-02-25T03:46:19.213Z,1010.44
2019-02-25T03:47:19.129Z,1010.44
2019-02-25T03:48:19.044Z,1010.42
2019-02-25T03:49:18.960Z,1010.37
2019-02-25T03:50:18.874Z,1010.37
2019-02-25T03:51:18.803Z,1010.39
2019-02-25T03:52:18.710Z,1010.38
2019-02-25T03:53:18.670Z,1010.40
2019-02-25T03:54:18.536Z,1010.38
2019-02-25T03:55:18.454Z,1010.36
2019-02-25T03:56:18.368Z,1010.35
2019-02-25T03:57:18.284Z,1010.37
2019-02-25T03:58:18.198Z,1010.38
2019-02-25T03:59:18.112Z,1010.33
2019-02-25T04:00:18.031Z,1010.33
2019-02-25T04:01:17.943Z,1010.31
2019-02-25T04:02:17.863Z,1010.34
2019-02-25T04:03:17.798Z,1010.36
2019-02-25T04:04:17.689Z,1010.36
2019-02-25T04:05:17.609Z,1010.35
2019-02-25T04:06:17.536Z,1010.35
2019-02-25T04:07:17.435Z,1010.33
2019-02-25T04:08:17.363Z,1010.36
2019-02-25T04:09:17.264Z,1010.34
2019-02-25T04:10:17.180Z,1010.38
2019-02-25T04:11:17.100Z,1010.36
2019-02-25T04:12:17.011Z,1010.32
2019-02-25T04:13:16.927Z,1010.33
2019-02-25T04:14:16.843Z,1010.32
2019-02-25T04:15:16.759Z,1010.30
2019-02-25T04:16:16.674Z,1010.31
2019-02-25T04:17:16.587Z,1010.32
2019-02-25T04:18:16.519Z,1010.32
2019-02-25T04:19:16.418Z,1010.34
2019-02-25T04:20:16.333Z,1010.36
2019-02-25T04:21:16.249Z,1010.40
2019-02-25T04:22:16.164Z,1010.38
2019-02-25T04:23:16.079Z,1010.38
2019-02-25T04:24:15.994Z,1010.37
2019-02-25T04:25:15.909Z,1010.38
2019-02-25T04:26:15.828Z,1010.42
2019-02-25T04:27:15.749Z,1010.43
2019-02-25T04:28:15.658Z,1010.45
2019-02-25T04:29:15.572Z,1010.46
2019-02-25T04:30:15.489Z,1010.44
2019-02-25T04:31:15.401Z,1010.44
2019-02-25T04:32:15.316Z,1010.44
2019-02-25T04:33:15.232Z,1010.42
2019-02-25T04:34:15.148Z,1010.43
2019-02-25T04:35:15.063Z,1010.43
2019-02-25T04:36:14.977Z,1010.46
2019-02-25T04:37:14.893Z,1010.44
2019-02-25T04:38:14.808Z,1010.43
2019-02-25T04:39:14.723Z,1010.40
2019-02-25T04:40:14.641Z,1010.43
2019-02-25T04:41:14.554Z,1010.43
2019-02-25T04:42:14.469Z,1010.44
2019-02-25T04:43:14.386Z,1010.42
2019-02-25T04:44:14.306Z,1010.41
2019-02-25T04:45:14.218Z,1010.43
2019-02-25T04:46:14.132Z,1010.45
2019-02-25T04:47:14.047Z,1010.42
2019-02-25T04:48:13.963Z,1010.41
2019-02-25T04:49:13.881Z,1010.39
2019-02-25T04:50:13.793Z,1010.37
2019-02-25T04:51:13.712Z,1010.41
2019-02-25T04:52:13.622Z,1010.38
2019-02-25T04:53:13.538Z,1010.38
2019-02-25T04:54:13.453Z,1010.38
2019-02-25T04:55:13.372Z,1010.40
2019-02-25T04:56:13.285Z,1010.44
2019-02-25T04:57:13.199Z,1010.41
2019-02-25T04:58:13.116Z,1010.44
2019-02-25T04:59:13.031Z,1010.39
2019-02-25T05:00:12.946Z,1010.37
2019-02-25T05:01:12.860Z,1010.35
2019-02-25T05:02:12.776Z,1010.42
2019-02-25T05:03:12.705Z,1010.43
2019-02-25T05:04:12.606Z,1010.45
2019-02-25T05:05:12.521Z,1010.41
2019-02-25T05:06:12.441Z,1010.42
2019-02-25T05:07:12.352Z,1010.43
2019-02-25T05:08:12.266Z,1010.41
2019-02-25T05:09:12.182Z,1010.40
2019-02-25T05:10:12.100Z,1010.40
2019-02-25T05:11:12.012Z,1010.38
2019-02-25T05:12:11.928Z,1010.41
2019-02-25T05:13:11.843Z,1010.44
2019-02-25T05:14:11.760Z,1010.41
2019-02-25T05:15:11.675Z,1010.51
2019-02-25T05:16:11.589Z,1010.47
2019-02-25T05:17:11.503Z,1010.45
2019-02-25T05:18:11.421Z,1010.45
2019-02-25T05:19:11.336Z,1010.48
2019-02-25T05:20:11.251Z,1010.46
2019-02-25T05:21:11.166Z,1010.41
2019-02-25T05:22:11.080Z,1010.43
2019-02-25T05:23:10.996Z,1010.47
2019-02-25T05:24:10.912Z,1010.42
2019-02-25T05:25:10.826Z,1010.42
2019-02-25T05:26:10.744Z,1010.37
2019-02-25T05:27:10.658Z,1010.35
2019-02-25T05:28:10.572Z,1010.38
2019-02-25T05:29:10.493Z,1010.37
2019-02-25T05:30:10.404Z,1010.34
2019-02-25T05:31:10.319Z,1010.40
2019-02-25T05:32:10.235Z,1010.39
2019-02-25T05:33:10.148Z,1010.40
2019-02-25T05:34:10.067Z,1010.33
2019-02-25T05:35:09.983Z,1010.40
2019-02-25T05:36:09.893Z,1010.37
2019-02-25T05:37:09.814Z,1010.41
2019-02-25T05:38:09.728Z,1010.38
2019-02-25T05:39:09.641Z,1010.37
2019-02-25T05:40:09.583Z,1010.36
2019-02-25T05:41:09.470Z,1010.34
2019-02-25T05:42:09.394Z,1010.34
2019-02-25T05:43:09.301Z,1010.34
2019-02-25T05:44:09.216Z,1010.36
2019-02-25T05:45:09.133Z,1010.36
2019-02-25T05:46:09.048Z,1010.32
2019-02-25T05:47:08.962Z,1010.33
2019-02-25T05:48:08.876Z,1010.32
2019-02-25T05:49:08.793Z,1010.33
2019-02-25T05:50:08.708Z,1010.34
2019-02-25T05:51:08.625Z,1010.32
2019-02-25T05:52:08.538Z,1010.30
2019-02-25T05:53:08.453Z,1010.32
2019-02-25T05:54:08.368Z,1010.28
2019-02-25T05:55:08.285Z,1010.33
2019-02-25T05:56:08.200Z,1010.29
2019-02-25T05:57:08.114Z,1010.28
2019-02-25T05:58:08.031Z,1010.33
2019-02-25T05:59:07.946Z,1010.28
2019-02-25T06:00:07.860Z,1010.32
2019-02-25T06:01:07.775Z,1010.31
2019-02-25T06:02:07.691Z,1010.34
2019-02-25T06:03:07.606Z,1010.34
2019-02-25T06:04:07.519Z,1010.39
2019-02-25T06:05:07.436Z,1010.37
2019-02-25T06:06:07.352Z,1010.38
2019-02-25T06:07:07.269Z,1010.35
2019-02-25T06:08:07.183Z,1010.35
2019-02-25T06:09:07.107Z,1010.34
2019-02-25T06:10:07.013Z,1010.37
2019-02-25T06:11:06.928Z,1010.31
2019-02-25T06:12:06.843Z,1010.31
2019-02-25T06:13:06.758Z,1010.35
2019-02-25T06:14:06.673Z,1010.35
2019-02-25T06:15:06.593Z,1010.36
2019-02-25T06:16:06.503Z,1010.39
2019-02-25T06:17:06.420Z,1010.39
2019-02-25T06:18:06.339Z,1010.38
2019-02-25T06:19:06.249Z,1010.41
2019-02-25T06:20:06.164Z,1010.40
2019-02-25T06:21:06.079Z,1010.37
2019-02-25T06:22:05.996Z,1010.37
2019-02-25T06:23:05.910Z,1010.39
2019-02-25T06:24:05.826Z,1010.38
2019-02-25T06:25:05.741Z,1010.38
2019-02-25T06:26:05.660Z,1010.37
2019-02-25T06:27:05.622Z,1010.38
2019-02-25T06:28:05.488Z,1010.40
2019-02-25T06:29:05.401Z,1010.38
2019-02-25T06:30:05.317Z,1010.36
2019-02-25T06:31:05.242Z,1010.36
2019-02-25T06:32:05.147Z,1010.37
2019-02-25T06:33:05.064Z,1010.33
2019-02-25T06:34:04.981Z,1010.36
2019-02-25T06:35:04.894Z,1010.38
2019-02-25T06:36:04.810Z,1010.40
2019-02-25T06:37:04.724Z,1010.41
2019-02-25T06:38:04.640Z,1010.37
2019-02-25T06:39:04.556Z,1010.39
2019-02-25T06:40:04.470Z,1010.40
2019-02-25T06:41:04.387Z,1010.38
2019-02-25T06:42:04.301Z,1010.41
2019-02-25T06:43:04.219Z,1010.41
2019-02-25T06:44:04.133Z,1010.41
2019-02-25T06:45:04.047Z,1010.43
2019-02-25T06:46:03.963Z,1010.41
2019-02-25T06:47:03.879Z,1010.38
2019-02-25T06:48:03.793Z,1010.37
2019-02-25T06:49:03.807Z,1010.39
2019-02-25T06:50:03.626Z,1010.41
2019-02-25T06:51:03.541Z,1010.39
2019-02-25T06:52:03.455Z,1010.46
2019-02-25T06:53:03.370Z,1010.50
2019-02-25T06:54:03.288Z,1010.49
2019-02-25T06:55:03.203Z,1010.49
2019-02-25T06:56:03.121Z,1010.52
2019-02-25T06:57:03.031Z,1010.49
2019-02-25T06:58:02.949Z,1010.52
2019-02-25T06:59:02.868Z,1010.51
2019-02-25T07:00:02.779Z,1010.49
2019-02-25T07:01:02.694Z,1010.51
2019-02-25T07:02:02.610Z,1010.57
2019-02-25T07:03:02.525Z,1010.58
2019-02-25T07:04:02.440Z,1010.58
2019-02-25T07:05:02.356Z,1010.63
2019-02-25T07:06:02.278Z,1010.59
2019-02-25T07:07:02.188Z,1010.59
2019-02-25T07:08:02.102Z,1010.54
2019-02-25T07:09:02.018Z,1010.56
2019-02-25T07:10:01.934Z,1010.58
2019-02-25T07:11:01.856Z,1010.54
2019-02-25T07:12:01.763Z,1010.55
2019-02-25T07:13:01.681Z,1010.54
2019-02-25T07:14:01.596Z,1010.54
2019-02-25T07:15:01.514Z,1010.53
2019-02-25T07:16:01.426Z,1010.56
2019-02-25T07:17:01.344Z,1010.53
2019-02-25T07:18:01.258Z,1010.51
2019-02-25T07:19:01.174Z,1010.53
2019-02-25T07:20:01.091Z,1010.49
2019-02-25T07:21:01.004Z,1010.50
2019-02-25T07:22:00.920Z,1010.50
2019-02-25T07:23:00.838Z,1010.51
2019-02-25T07:24:00.751Z,1010.53
2019-02-25T07:25:00.666Z,1010.49
2019-02-25T07:26:00.583Z,1010.48
2019-02-25T07:27:00.498Z,1010.46
2019-02-25T07:28:00.413Z,1010.48
2019-02-25T07:29:00.329Z,1010.47
2019-02-25T07:30:00.245Z,1010.49
2019-02-25T07:31:00.163Z,1010.49
2019-02-25T07:32:00.076Z,1010.53
2019-02-25T07:32:59.993Z,1010.52
2019-02-25T07:33:59.906Z,1010.53
2019-02-25T07:34:59.823Z,1010.52
2019-02-25T07:35:59.740Z,1010.55
2019-02-25T07:36:59.655Z,1010.59
2019-02-25T07:37:59.571Z,1010.53
2019-02-25T07:38:59.489Z,1010.55
2019-02-25T07:39:59.402Z,1010.58
2019-02-25T07:40:59.320Z,1010.54
2019-02-25T07:41:59.234Z,1010.47
2019-02-25T07:42:59.150Z,1010.51
2019-02-25T07:43:59.066Z,1010.49
2019-02-25T07:44:58.983Z,1010.48
2019-02-25T07:45:58.905Z,1010.55
2019-02-25T07:46:58.814Z,1010.54
2019-02-25T07:47:58.728Z,1010.54
2019-02-25T07:48:58.645Z,1010.54
2019-02-25T07:49:58.563Z,1010.52
2019-02-25T07:50:58.479Z,1010.53
2019-02-25T07:51:58.393Z,1010.52
2019-02-25T07:52:58.308Z,1010.53
2019-02-25T07:53:58.225Z,1010.52
2019-02-25T07:54:58.143Z,1010.49
2019-02-25T07:56:02.286Z,1010.49
2019-02-25T07:56:57.973Z,1010.54
2019-02-25T07:57:57.890Z,1010.54
2019-02-25T07:58:57.806Z,1010.57
2019-02-25T07:59:57.721Z,1010.57
2019-02-25T08:00:57.640Z,1010.57
2019-02-25T08:01:57.557Z,1010.54
2019-02-25T08:02:57.472Z,1010.52
2019-02-25T08:03:57.388Z,1010.55
2019-02-25T08:04:57.312Z,1010.58
2019-02-25T08:05:57.221Z,1010.61
2019-02-25T08:06:57.138Z,1010.64
2019-02-25T08:07:57.054Z,1010.62
2019-02-25T08:08:56.971Z,1010.65
2019-02-25T08:09:56.890Z,1010.66
2019-02-25T08:10:56.806Z,1010.65
2019-02-25T08:11:56.722Z,1010.73
2019-02-25T08:12:56.639Z,1010.67
2019-02-25T08:13:56.557Z,1010.68
2019-02-25T08:14:56.475Z,1010.72
2019-02-25T08:15:56.390Z,1010.73
2019-02-25T08:16:56.307Z,1010.79
2019-02-25T08:17:56.226Z,1010.81
2019-02-25T08:18:56.144Z,1010.83
2019-02-25T08:19:56.063Z,1010.81
2019-02-25T08:20:55.980Z,1010.89
2019-02-25T08:21:55.898Z,1010.93
2019-02-25T08:22:55.813Z,1010.91
2019-02-25T08:23:55.731Z,1010.96
2019-02-25T08:24:55.653Z,1011.00
2019-02-25T08:25:55.567Z,1011.03
2019-02-25T08:26:55.485Z,1011.06
2019-02-25T08:27:55.405Z,1011.01
2019-02-25T08:28:55.319Z,1011.03
2019-02-25T08:29:55.239Z,1011.00
2019-02-25T08:30:55.156Z,1011.06
2019-02-25T08:31:55.075Z,1011.05
2019-02-25T08:32:54.993Z,1011.03
2019-02-25T08:33:55.506Z,1011.03
2019-02-25T08:34:54.827Z,1011.06
2019-02-25T08:35:54.745Z,1011.04
2019-02-25T08:37:02.197Z,1011.05
2019-02-25T08:37:54.582Z,1011.02
2019-02-25T08:38:54.501Z,1010.99
2019-02-25T08:39:54.419Z,1010.95
2019-02-25T08:40:54.336Z,1010.97
2019-02-25T08:41:54.255Z,1010.98
2019-02-25T08:42:54.174Z,1011.00
2019-02-25T08:43:54.094Z,1011.03
2019-02-25T08:44:54.011Z,1011.03
2019-02-25T08:45:53.931Z,1010.98
2019-02-25T08:46:53.849Z,1011.01
2019-02-25T08:47:53.766Z,1011.01
2019-02-25T08:48:53.685Z,1011.00
2019-02-25T08:49:53.605Z,1011.03
2019-02-25T08:50:53.524Z,1011.00
2019-02-25T08:51:53.442Z,1010.99
2019-02-25T08:52:53.366Z,1011.04
2019-02-25T08:53:53.280Z,1011.05
2019-02-25T08:54:53.199Z,1011.06
2019-02-25T08:55:53.117Z,1011.07
2019-02-25T08:56:53.036Z,1011.06
2019-02-25T08:57:52.955Z,1011.06
2019-02-25T08:58:52.880Z,1011.06
2019-02-25T08:59:52.795Z,1011.05
2019-02-25T09:00:52.714Z,1011.03
2019-02-25T09:01:52.637Z,1011.03
2019-02-25T09:02:52.552Z,1011.04
2019-02-25T09:03:52.470Z,1011.06
2019-02-25T09:04:52.390Z,1011.07
2019-02-25T09:05:52.309Z,1011.03
2019-02-25T09:06:52.228Z,1011.01
2019-02-25T09:07:52.147Z,1011.08
2019-02-25T09:08:52.066Z,1011.08
2019-02-25T09:09:51.989Z,1011.07
2019-02-25T09:10:51.908Z,1011.07
2019-02-25T09:11:51.828Z,1011.11
2019-02-25T09:12:51.754Z,1011.07
2019-02-25T09:13:51.664Z,1011.07
2019-02-25T09:14:51.585Z,1011.10
2019-02-25T09:15:51.504Z,1011.09
2019-02-25T09:16:51.424Z,1011.08
2019-02-25T09:17:51.344Z,1011.04
2019-02-25T09:18:51.264Z,1011.10
2019-02-25T09:19:51.182Z,1011.11
2019-02-25T09:20:51.101Z,1011.05
2019-02-25T09:21:51.022Z,1011.08
2019-02-25T09:22:50.943Z,1011.09
2019-02-25T09:23:50.865Z,1011.04
2019-02-25T09:24:50.784Z,1011.04
2019-02-25T09:25:50.704Z,1011.05
2019-02-25T09:26:50.623Z,1011.06
2019-02-25T09:27:50.544Z,1011.05
2019-02-25T09:28:50.461Z,1011.04
2019-02-25T09:29:50.384Z,1011.11
2019-02-25T09:30:50.305Z,1011.09
2019-02-25T09:31:50.225Z,1011.10
2019-02-25T09:32:50.146Z,1011.03
2019-02-25T09:33:50.065Z,1011.00
2019-02-25T09:34:49.986Z,1011.00
2019-02-25T09:35:49.904Z,1011.00
2019-02-25T09:36:49.830Z,1011.04
2019-02-25T09:37:49.746Z,1010.97
2019-02-25T09:38:49.666Z,1010.97
2019-02-25T09:39:49.588Z,1010.95
2019-02-25T09:40:49.507Z,1010.97
2019-02-25T09:41:49.428Z,1010.97
2019-02-25T09:42:49.348Z,1010.96
2019-02-25T09:43:49.269Z,1010.99
2019-02-25T09:44:49.189Z,1011.03
2019-02-25T09:45:49.111Z,1011.01
2019-02-25T09:46:49.031Z,1010.99
2019-02-25T09:47:48.952Z,1010.97
2019-02-25T09:48:48.873Z,1010.98
2019-02-25T09:49:50.911Z,1011.02
2019-02-25T09:50:48.713Z,1011.02
2019-02-25T09:51:48.633Z,1011.05
2019-02-25T09:52:48.559Z,1011.04
2019-02-25T09:53:48.477Z,1011.00
2019-02-25T09:54:48.396Z,1010.98
2019-02-25T09:55:48.317Z,1010.97
2019-02-25T09:56:48.237Z,1010.98
2019-02-25T09:57:48.160Z,1010.96
2019-02-25T09:58:48.081Z,1010.98
2019-02-25T09:59:48.003Z,1010.91
2019-02-25T10:00:47.924Z,1010.93
2019-02-25T10:01:47.846Z,1010.93
2019-02-25T10:02:47.766Z,1010.90
2019-02-25T10:03:47.688Z,1010.95
2019-02-25T10:04:47.610Z,1010.92
2019-02-25T10:05:47.533Z,1010.91
2019-02-25T10:06:47.456Z,1010.94
2019-02-25T10:07:47.377Z,1010.91
2019-02-25T10:08:47.300Z,1010.93
2019-02-25T10:09:47.223Z,1010.95
2019-02-25T10:10:47.146Z,1010.95
2019-02-25T10:11:48.711Z,1010.98
2019-02-25T10:12:46.995Z,1010.95
2019-02-25T10:13:46.916Z,1010.96
2019-02-25T10:14:46.841Z,1010.98
2019-02-25T10:15:49.386Z,1010.97
2019-02-25T10:16:46.690Z,1010.95
2019-02-25T10:17:46.617Z,1010.96
2019-02-25T10:18:46.538Z,1010.99
2019-02-25T10:19:46.464Z,1010.97
2019-02-25T10:20:46.385Z,1010.96
2019-02-25T10:21:46.313Z,1011.00
2019-02-25T10:22:46.235Z,1010.97
2019-02-25T10:23:46.162Z,1011.00
2019-02-25T10:24:46.084Z,1010.98
2019-02-25T10:25:46.007Z,1010.94
2019-02-25T10:26:45.930Z,1010.96
2019-02-25T10:28:48.400Z,1010.93
2019-02-25T10:29:45.707Z,1010.90
2019-02-25T10:30:52.636Z,1010.95
2019-02-25T10:31:45.551Z,1010.92
2019-02-25T10:32:45.476Z,1010.91
2019-02-25T10:33:45.401Z,1010.90
2019-02-25T10:34:45.326Z,1010.93
2019-02-25T10:35:45.250Z,1010.90
2019-02-25T10:36:46.083Z,1010.90
2019-02-25T10:37:45.102Z,1010.88
2019-02-25T10:38:45.028Z,1010.96
2019-02-25T10:39:45.418Z,1010.96
2019-02-25T10:40:45.466Z,1010.99
2019-02-25T10:41:44.803Z,1010.96
2019-02-25T10:42:44.728Z,1010.92
2019-02-25T10:43:44.652Z,1010.95
2019-02-25T10:44:44.580Z,1010.94
2019-02-25T10:45:45.412Z,1010.92
2019-02-25T10:46:44.953Z,1010.90
2019-02-25T10:47:46.457Z,1010.94
2019-02-25T10:48:44.280Z,1010.91
2019-02-25T10:49:44.207Z,1010.89
2019-02-25T10:50:44.133Z,1010.91
2019-02-25T10:51:45.666Z,1010.92
2019-02-25T10:52:44.998Z,1010.89
2019-02-25T10:53:45.218Z,1010.90
2019-02-25T10:54:43.837Z,1010.93
2019-02-25T10:55:46.318Z,1010.94
2019-02-25T10:56:43.693Z,1010.90
2019-02-25T10:57:43.616Z,1010.91
2019-02-25T10:58:43.545Z,1010.91
2019-02-25T10:59:43.471Z,1010.97
2019-02-25T11:00:43.771Z,1010.96
2019-02-25T11:01:43.749Z,1010.96
2019-02-25T11:02:44.481Z,1010.92
2019-02-25T11:03:43.850Z,1010.90
2019-02-25T11:04:43.109Z,1010.98
2019-02-25T11:05:43.042Z,1010.99
2019-02-25T11:06:42.968Z,1010.96
2019-02-25T11:07:42.892Z,1011.03
2019-02-25T11:08:43.586Z,1011.06
2019-02-25T11:09:44.406Z,1011.08
2019-02-25T11:10:44.124Z,1011.09
2019-02-25T11:11:42.604Z,1011.12
2019-02-25T11:12:42.532Z,1011.18
2019-02-25T11:13:42.460Z,1011.14
2019-02-25T11:14:43.404Z,1011.11
2019-02-25T11:15:44.000Z,1011.09
2019-02-25T11:16:43.925Z,1011.11
2019-02-25T11:17:42.173Z,1011.09
2019-02-25T11:18:42.122Z,1011.08
2019-02-25T11:19:42.027Z,1011.07
2019-02-25T11:20:41.958Z,1011.06
2019-02-25T11:21:42.602Z,1011.01
2019-02-25T11:22:42.418Z,1011.04
2019-02-25T11:23:43.436Z,1011.04
2019-02-25T11:24:41.671Z,1011.04
2019-02-25T11:25:41.608Z,1011.00
2019-02-25T11:26:41.529Z,1011.03
2019-02-25T11:27:41.457Z,1011.06
2019-02-25T11:28:43.699Z,1011.02
2019-02-25T11:29:42.520Z,1011.06
2019-02-25T11:30:43.158Z,1011.07
2019-02-25T11:31:41.175Z,1011.07
2019-02-25T11:32:41.104Z,1011.17
2019-02-25T11:33:41.033Z,1011.28
2019-02-25T11:34:40.965Z,1011.26
2019-02-25T11:35:41.529Z,1011.21
2019-02-25T11:36:40.821Z,1011.18
2019-02-25T11:37:40.749Z,1011.21
2019-02-25T11:38:40.681Z,1011.14
2019-02-25T11:39:40.609Z,1011.18
2019-02-25T11:40:40.540Z,1011.13
2019-02-25T11:41:41.066Z,1011.22
2019-02-25T11:42:40.402Z,1011.27
2019-02-25T11:43:40.335Z,1011.21
2019-02-25T11:44:40.264Z,1011.24
2019-02-25T11:45:40.193Z,1011.20
2019-02-25T11:46:40.125Z,1011.18
2019-02-25T11:47:40.054Z,1011.16
2019-02-25T11:48:39.986Z,1011.13
2019-02-25T11:49:39.917Z,1011.14
2019-02-25T11:50:39.849Z,1011.09
2019-02-25T11:51:39.780Z,1011.13
2019-02-25T11:52:39.712Z,1011.09
2019-02-25T11:53:39.645Z,1011.14
2019-02-25T11:54:39.679Z,1011.10
2019-02-25T11:55:39.510Z,1011.12
2019-02-25T11:56:39.443Z,1011.16
2019-02-25T11:57:39.376Z,1011.16
2019-02-25T11:58:39.310Z,1011.23
2019-02-25T11:59:39.244Z,1011.22
2019-02-25T12:00:39.874Z,1011.23
2019-02-25T12:01:39.112Z,1011.26
2019-02-25T12:02:39.045Z,1011.24
2019-02-25T12:03:38.980Z,1011.19
2019-02-25T12:04:38.914Z,1011.19
2019-02-25T12:05:38.849Z,1011.18